sensor_id;sensor_type;location;lat;lon;timestamp;P1;durP1;ratioP1;P2;durP2;ratioP2
45887;SDS011;31595;51.418;7.572;2023-06-22T00:00:53;7.55;;;5.40;;
45887;SDS011;31595;51.418;7.572;2023-06-22T00:03:22;6.10;;;5.38;;
45887;SDS011;31595;51.418;7.572;2023-06-22T00:05:49;7.40;;;5.15;;
45887;SDS011;31595;51.418;7.572;2023-06-22T00:08:16;6.00;;;5.40;;
45887;SDS011;31595;51.418;7.572;2023-06-22T00:10:44;5.35;;;4.85;;
45887;SDS011;31595;51.418;7.572;2023-06-22T00:13:11;5.20;;;4.70;;
45887;SDS011;31595;51.418;7.572;2023-06-22T00:15:40;5.40;;;4.90;;
45887;SDS011;31595;51.418;7.572;2023-06-22T00:18:10;7.00;;;5.28;;
45887;SDS011;31595;51.418;7.572;2023-06-22T00:20:37;8.32;;;5.45;;
45887;SDS011;31595;51.418;7.572;2023-06-22T00:23:04;6.35;;;4.80;;
45887;SDS011;31595;51.418;7.572;2023-06-22T00:28:00;6.10;;;5.50;;
45887;SDS011;31595;51.418;7.572;2023-06-22T00:32:57;5.43;;;4.93;;
45887;SDS011;31595;51.418;7.572;2023-06-22T00:35:24;5.15;;;4.63;;
45887;SDS011;31595;51.418;7.572;2023-06-22T00:37:54;5.75;;;5.03;;
45887;SDS011;31595;51.418;7.572;2023-06-22T00:40:26;5.45;;;4.72;;
45887;SDS011;31595;51.418;7.572;2023-06-22T00:42:53;6.22;;;5.18;;
45887;SDS011;31595;51.418;7.572;2023-06-22T00:45:22;5.90;;;4.97;;
45887;SDS011;31595;51.418;7.572;2023-06-22T00:47:50;5.85;;;5.28;;
45887;SDS011;31595;51.418;7.572;2023-06-22T00:50:20;5.53;;;5.03;;
45887;SDS011;31595;51.418;7.572;2023-06-22T00:52:48;5.88;;;5.28;;
45887;SDS011;31595;51.418;7.572;2023-06-22T00:55:15;6.35;;;4.95;;
45887;SDS011;31595;51.418;7.572;2023-06-22T00:57:45;6.27;;;5.30;;
45887;SDS011;31595;51.418;7.572;2023-06-22T01:00:13;5.93;;;5.25;;
45887;SDS011;31595;51.418;7.572;2023-06-22T01:02:41;5.23;;;4.73;;
45887;SDS011;31595;51.418;7.572;2023-06-22T01:05:13;6.30;;;5.70;;
45887;SDS011;31595;51.418;7.572;2023-06-22T01:07:42;7.55;;;5.10;;
45887;SDS011;31595;51.418;7.572;2023-06-22T01:10:11;5.60;;;4.95;;
45887;SDS011;31595;51.418;7.572;2023-06-22T01:12:42;5.90;;;5.30;;
45887;SDS011;31595;51.418;7.572;2023-06-22T01:15:11;6.03;;;5.43;;
45887;SDS011;31595;51.418;7.572;2023-06-22T01:17:40;5.97;;;5.38;;
45887;SDS011;31595;51.418;7.572;2023-06-22T01:20:10;6.03;;;5.28;;
45887;SDS011;31595;51.418;7.572;2023-06-22T01:22:43;6.20;;;5.00;;
45887;SDS011;31595;51.418;7.572;2023-06-22T01:25:13;6.55;;;5.32;;
45887;SDS011;31595;51.418;7.572;2023-06-22T01:27:47;6.75;;;5.50;;
45887;SDS011;31595;51.418;7.572;2023-06-22T01:30:18;6.55;;;5.07;;
45887;SDS011;31595;51.418;7.572;2023-06-22T01:32:46;5.32;;;4.82;;
45887;SDS011;31595;51.418;7.572;2023-06-22T01:35:13;6.22;;;5.13;;
45887;SDS011;31595;51.418;7.572;2023-06-22T01:37:40;7.00;;;5.25;;
45887;SDS011;31595;51.418;7.572;2023-06-22T01:40:07;5.68;;;5.18;;
45887;SDS011;31595;51.418;7.572;2023-06-22T01:42:35;6.18;;;4.72;;
45887;SDS011;31595;51.418;7.572;2023-06-22T01:45:03;5.78;;;5.18;;
45887;SDS011;31595;51.418;7.572;2023-06-22T01:47:31;9.07;;;5.00;;
45887;SDS011;31595;51.418;7.572;2023-06-22T01:49:58;5.72;;;5.00;;
45887;SDS011;31595;51.418;7.572;2023-06-22T01:52:25;6.13;;;5.53;;
45887;SDS011;31595;51.418;7.572;2023-06-22T01:54:51;6.32;;;5.65;;
45887;SDS011;31595;51.418;7.572;2023-06-22T01:57:18;5.72;;;5.10;;
45887;SDS011;31595;51.418;7.572;2023-06-22T01:59:48;5.68;;;5.18;;
45887;SDS011;31595;51.418;7.572;2023-06-22T02:02:15;6.45;;;5.75;;
45887;SDS011;31595;51.418;7.572;2023-06-22T02:04:46;6.13;;;4.80;;
45887;SDS011;31595;51.418;7.572;2023-06-22T02:07:14;6.03;;;4.88;;
45887;SDS011;31595;51.418;7.572;2023-06-22T02:09:43;6.97;;;4.88;;
45887;SDS011;31595;51.418;7.572;2023-06-22T02:12:11;5.20;;;4.70;;
45887;SDS011;31595;51.418;7.572;2023-06-22T02:14:39;5.38;;;4.88;;
45887;SDS011;31595;51.418;7.572;2023-06-22T02:17:07;6.65;;;5.10;;
45887;SDS011;31595;51.418;7.572;2023-06-22T02:19:35;5.32;;;4.80;;
45887;SDS011;31595;51.418;7.572;2023-06-22T02:22:04;5.90;;;5.18;;
45887;SDS011;31595;51.418;7.572;2023-06-22T02:24:34;7.00;;;5.22;;
45887;SDS011;31595;51.418;7.572;2023-06-22T02:27:01;5.35;;;4.85;;
45887;SDS011;31595;51.418;7.572;2023-06-22T02:29:30;5.93;;;5.18;;
45887;SDS011;31595;51.418;7.572;2023-06-22T02:31:57;6.53;;;4.27;;
45887;SDS011;31595;51.418;7.572;2023-06-22T02:34:23;6.20;;;5.60;;
45887;SDS011;31595;51.418;7.572;2023-06-22T02:36:50;7.40;;;5.45;;
45887;SDS011;31595;51.418;7.572;2023-06-22T02:39:20;6.97;;;5.22;;
45887;SDS011;31595;51.418;7.572;2023-06-22T02:41:47;6.53;;;5.55;;
45887;SDS011;31595;51.418;7.572;2023-06-22T02:44:14;6.35;;;5.43;;
45887;SDS011;31595;51.418;7.572;2023-06-22T02:46:41;5.72;;;5.13;;
45887;SDS011;31595;51.418;7.572;2023-06-22T02:49:08;5.72;;;5.13;;
45887;SDS011;31595;51.418;7.572;2023-06-22T02:51:35;5.63;;;5.10;;
45887;SDS011;31595;51.418;7.572;2023-06-22T02:54:04;5.97;;;4.85;;
45887;SDS011;31595;51.418;7.572;2023-06-22T02:56:32;5.68;;;5.10;;
45887;SDS011;31595;51.418;7.572;2023-06-22T02:58:59;7.10;;;5.30;;
45887;SDS011;31595;51.418;7.572;2023-06-22T03:01:26;5.30;;;4.80;;
45887;SDS011;31595;51.418;7.572;2023-06-22T03:03:55;6.70;;;4.90;;
45887;SDS011;31595;51.418;7.572;2023-06-22T03:06:25;7.38;;;5.60;;
45887;SDS011;31595;51.418;7.572;2023-06-22T03:08:57;9.23;;;5.85;;
45887;SDS011;31595;51.418;7.572;2023-06-22T03:11:24;7.68;;;4.60;;
45887;SDS011;31595;51.418;7.572;2023-06-22T03:13:52;6.35;;;5.50;;
45887;SDS011;31595;51.418;7.572;2023-06-22T03:16:24;8.73;;;5.38;;
45887;SDS011;31595;51.418;7.572;2023-06-22T03:18:50;12.40;;;6.30;;
45887;SDS011;31595;51.418;7.572;2023-06-22T03:21:18;6.15;;;5.55;;
45887;SDS011;31595;51.418;7.572;2023-06-22T03:23:45;6.20;;;5.53;;
45887;SDS011;31595;51.418;7.572;2023-06-22T03:26:12;8.50;;;5.93;;
45887;SDS011;31595;51.418;7.572;2023-06-22T03:28:39;7.80;;;5.93;;
45887;SDS011;31595;51.418;7.572;2023-06-22T03:31:07;5.82;;;5.15;;
45887;SDS011;31595;51.418;7.572;2023-06-22T03:33:34;6.00;;;4.60;;
45887;SDS011;31595;51.418;7.572;2023-06-22T03:36:01;6.43;;;5.68;;
45887;SDS011;31595;51.418;7.572;2023-06-22T03:38:28;7.22;;;5.10;;
45887;SDS011;31595;51.418;7.572;2023-06-22T03:40:55;7.15;;;5.30;;
45887;SDS011;31595;51.418;7.572;2023-06-22T03:43:24;8.00;;;6.22;;
45887;SDS011;31595;51.418;7.572;2023-06-22T03:45:51;7.22;;;6.43;;
45887;SDS011;31595;51.418;7.572;2023-06-22T03:48:19;7.55;;;6.38;;
45887;SDS011;31595;51.418;7.572;2023-06-22T03:50:47;8.00;;;6.15;;
45887;SDS011;31595;51.418;7.572;2023-06-22T03:53:14;7.88;;;5.50;;
45887;SDS011;31595;51.418;7.572;2023-06-22T03:55:47;7.22;;;5.93;;
45887;SDS011;31595;51.418;7.572;2023-06-22T03:58:15;7.53;;;5.32;;
45887;SDS011;31595;51.418;7.572;2023-06-22T04:00:41;7.07;;;5.57;;
45887;SDS011;31595;51.418;7.572;2023-06-22T04:03:08;8.45;;;6.40;;
45887;SDS011;31595;51.418;7.572;2023-06-22T04:05:39;8.00;;;5.97;;
45887;SDS011;31595;51.418;7.572;2023-06-22T04:08:07;5.93;;;5.25;;
45887;SDS011;31595;51.418;7.572;2023-06-22T04:10:34;6.18;;;5.57;;
45887;SDS011;31595;51.418;7.572;2023-06-22T04:13:01;6.75;;;6.05;;
45887;SDS011;31595;51.418;7.572;2023-06-22T04:24:24;10.32;;;7.38;;
45887;SDS011;31595;51.418;7.572;2023-06-22T04:26:51;9.32;;;7.45;;
45887;SDS011;31595;51.418;7.572;2023-06-22T04:29:20;14.45;;;7.32;;
45887;SDS011;31595;51.418;7.572;2023-06-22T04:31:55;10.55;;;7.80;;
45887;SDS011;31595;51.418;7.572;2023-06-22T04:34:23;9.30;;;7.27;;
45887;SDS011;31595;51.418;7.572;2023-06-22T04:36:51;10.25;;;7.43;;
45887;SDS011;31595;51.418;7.572;2023-06-22T04:39:18;9.60;;;7.63;;
45887;SDS011;31595;51.418;7.572;2023-06-22T04:41:46;10.73;;;8.00;;
45887;SDS011;31595;51.418;7.572;2023-06-22T04:44:13;7.60;;;6.80;;
45887;SDS011;31595;51.418;7.572;2023-06-22T04:46:50;10.02;;;7.13;;
45887;SDS011;31595;51.418;7.572;2023-06-22T04:49:19;8.75;;;7.80;;
45887;SDS011;31595;51.418;7.572;2023-06-22T04:51:47;9.98;;;8.50;;
45887;SDS011;31595;51.418;7.572;2023-06-22T04:54:14;11.25;;;8.07;;
45887;SDS011;31595;51.418;7.572;2023-06-22T04:56:41;10.23;;;8.85;;
45887;SDS011;31595;51.418;7.572;2023-06-22T04:59:13;14.27;;;10.18;;
45887;SDS011;31595;51.418;7.572;2023-06-22T05:01:40;13.87;;;10.50;;
45887;SDS011;31595;51.418;7.572;2023-06-22T05:04:07;12.25;;;8.48;;
45887;SDS011;31595;51.418;7.572;2023-06-22T05:06:34;11.80;;;9.65;;
45887;SDS011;31595;51.418;7.572;2023-06-22T05:09:01;10.05;;;9.05;;
45887;SDS011;31595;51.418;7.572;2023-06-22T05:11:30;10.73;;;9.70;;
45887;SDS011;31595;51.418;7.572;2023-06-22T05:13:57;12.63;;;9.68;;
45887;SDS011;31595;51.418;7.572;2023-06-22T05:16:29;10.52;;;9.05;;
45887;SDS011;31595;51.418;7.572;2023-06-22T05:18:56;13.15;;;10.57;;
45887;SDS011;31595;51.418;7.572;2023-06-22T05:21:23;10.48;;;8.50;;
45887;SDS011;31595;51.418;7.572;2023-06-22T05:23:51;10.93;;;9.82;;
45887;SDS011;31595;51.418;7.572;2023-06-22T05:26:18;11.98;;;10.52;;
45887;SDS011;31595;51.418;7.572;2023-06-22T05:28:45;11.80;;;10.60;;
45887;SDS011;31595;51.418;7.572;2023-06-22T05:31:13;12.07;;;10.57;;
45887;SDS011;31595;51.418;7.572;2023-06-22T05:33:42;12.23;;;10.13;;
45887;SDS011;31595;51.418;7.572;2023-06-22T05:38:36;11.68;;;10.48;;
45887;SDS011;31595;51.418;7.572;2023-06-22T05:41:02;11.70;;;10.50;;
45887;SDS011;31595;51.418;7.572;2023-06-22T05:43:29;13.45;;;11.07;;
45887;SDS011;31595;51.418;7.572;2023-06-22T05:45:56;12.48;;;11.15;;
45887;SDS011;31595;51.418;7.572;2023-06-22T05:48:23;11.30;;;10.20;;
45887;SDS011;31595;51.418;7.572;2023-06-22T05:50:52;12.73;;;11.52;;
45887;SDS011;31595;51.418;7.572;2023-06-22T05:53:19;13.43;;;11.63;;
45887;SDS011;31595;51.418;7.572;2023-06-22T05:55:45;13.40;;;12.10;;
45887;SDS011;31595;51.418;7.572;2023-06-22T05:58:12;16.40;;;12.23;;
45887;SDS011;31595;51.418;7.572;2023-06-22T06:00:40;14.40;;;12.95;;
45887;SDS011;31595;51.418;7.572;2023-06-22T06:03:07;16.40;;;11.70;;
45887;SDS011;31595;51.418;7.572;2023-06-22T06:05:34;11.85;;;10.65;;
45887;SDS011;31595;51.418;7.572;2023-06-22T06:08:03;14.10;;;12.48;;
45887;SDS011;31595;51.418;7.572;2023-06-22T06:10:31;12.48;;;11.23;;
45887;SDS011;31595;51.418;7.572;2023-06-22T06:12:58;15.15;;;13.48;;
45887;SDS011;31595;51.418;7.572;2023-06-22T06:15:27;14.57;;;13.18;;
45887;SDS011;31595;51.418;7.572;2023-06-22T06:17:55;13.27;;;11.93;;
45887;SDS011;31595;51.418;7.572;2023-06-22T06:20:23;14.88;;;12.57;;
45887;SDS011;31595;51.418;7.572;2023-06-22T06:22:51;13.18;;;11.70;;
45887;SDS011;31595;51.418;7.572;2023-06-22T06:25:20;12.82;;;11.52;;
45887;SDS011;31595;51.418;7.572;2023-06-22T06:30:50;15.70;;;12.60;;
45887;SDS011;31595;51.418;7.572;2023-06-22T06:33:19;13.32;;;11.98;;
45887;SDS011;31595;51.418;7.572;2023-06-22T06:35:46;13.18;;;11.75;;
45887;SDS011;31595;51.418;7.572;2023-06-22T06:38:14;14.50;;;13.00;;
45887;SDS011;31595;51.418;7.572;2023-06-22T06:40:43;14.68;;;13.02;;
45887;SDS011;31595;51.418;7.572;2023-06-22T06:43:14;16.25;;;13.02;;
45887;SDS011;31595;51.418;7.572;2023-06-22T06:45:41;12.80;;;11.60;;
45887;SDS011;31595;51.418;7.572;2023-06-22T06:48:09;13.75;;;12.45;;
45887;SDS011;31595;51.418;7.572;2023-06-22T06:50:36;13.80;;;12.38;;
45887;SDS011;31595;51.418;7.572;2023-06-22T06:53:03;14.32;;;12.90;;
45887;SDS011;31595;51.418;7.572;2023-06-22T06:55:31;14.10;;;12.80;;
45887;SDS011;31595;51.418;7.572;2023-06-22T06:58:01;13.77;;;12.43;;
45887;SDS011;31595;51.418;7.572;2023-06-22T07:00:30;12.48;;;11.38;;
45887;SDS011;31595;51.418;7.572;2023-06-22T07:02:59;13.13;;;11.55;;
45887;SDS011;31595;51.418;7.572;2023-06-22T07:05:26;12.43;;;10.95;;
45887;SDS011;31595;51.418;7.572;2023-06-22T07:07:53;13.32;;;11.93;;
45887;SDS011;31595;51.418;7.572;2023-06-22T07:10:21;13.25;;;11.98;;
45887;SDS011;31595;51.418;7.572;2023-06-22T07:12:47;12.43;;;11.15;;
45887;SDS011;31595;51.418;7.572;2023-06-22T07:15:15;13.60;;;12.23;;
45887;SDS011;31595;51.418;7.572;2023-06-22T07:17:42;15.48;;;13.85;;
45887;SDS011;31595;51.418;7.572;2023-06-22T07:20:09;13.43;;;12.02;;
45887;SDS011;31595;51.418;7.572;2023-06-22T07:22:37;12.77;;;11.27;;
45887;SDS011;31595;51.418;7.572;2023-06-22T07:25:05;13.82;;;12.43;;
45887;SDS011;31595;51.418;7.572;2023-06-22T07:27:35;13.20;;;11.90;;
45887;SDS011;31595;51.418;7.572;2023-06-22T07:30:03;13.70;;;11.88;;
45887;SDS011;31595;51.418;7.572;2023-06-22T07:32:32;13.77;;;12.30;;
45887;SDS011;31595;51.418;7.572;2023-06-22T07:34:59;13.82;;;12.10;;
45887;SDS011;31595;51.418;7.572;2023-06-22T07:37:26;12.88;;;11.57;;
45887;SDS011;31595;51.418;7.572;2023-06-22T07:39:54;13.00;;;11.77;;
45887;SDS011;31595;51.418;7.572;2023-06-22T07:42:24;13.38;;;12.00;;
45887;SDS011;31595;51.418;7.572;2023-06-22T07:44:51;12.65;;;11.52;;
45887;SDS011;31595;51.418;7.572;2023-06-22T07:47:17;13.57;;;11.88;;
45887;SDS011;31595;51.418;7.572;2023-06-22T07:49:46;13.32;;;11.82;;
45887;SDS011;31595;51.418;7.572;2023-06-22T07:52:13;13.13;;;10.40;;
45887;SDS011;31595;51.418;7.572;2023-06-22T07:54:39;12.30;;;11.00;;
45887;SDS011;31595;51.418;7.572;2023-06-22T07:57:06;13.13;;;11.77;;
45887;SDS011;31595;51.418;7.572;2023-06-22T07:59:33;12.00;;;10.50;;
45887;SDS011;31595;51.418;7.572;2023-06-22T08:02:00;13.20;;;11.18;;
45887;SDS011;31595;51.418;7.572;2023-06-22T08:04:28;11.38;;;10.32;;
45887;SDS011;31595;51.418;7.572;2023-06-22T08:06:57;13.10;;;11.90;;
45887;SDS011;31595;51.418;7.572;2023-06-22T08:09:24;11.35;;;10.35;;
45887;SDS011;31595;51.418;7.572;2023-06-22T08:11:51;11.50;;;10.35;;
45887;SDS011;31595;51.418;7.572;2023-06-22T08:14:18;11.23;;;10.23;;
45887;SDS011;31595;51.418;7.572;2023-06-22T08:16:45;10.27;;;9.38;;
45887;SDS011;31595;51.418;7.572;2023-06-22T08:19:12;9.80;;;8.52;;
45887;SDS011;31595;51.418;7.572;2023-06-22T08:21:39;10.27;;;9.27;;
45887;SDS011;31595;51.418;7.572;2023-06-22T08:24:07;9.85;;;8.95;;
45887;SDS011;31595;51.418;7.572;2023-06-22T08:26:34;9.45;;;8.65;;
45887;SDS011;31595;51.418;7.572;2023-06-22T08:29:03;8.68;;;7.88;;
45887;SDS011;31595;51.418;7.572;2023-06-22T08:31:30;10.02;;;9.13;;
45887;SDS011;31595;51.418;7.572;2023-06-22T08:33:57;9.23;;;8.43;;
45887;SDS011;31595;51.418;7.572;2023-06-22T08:36:24;9.85;;;8.93;;
45887;SDS011;31595;51.418;7.572;2023-06-22T08:38:54;9.35;;;8.55;;
45887;SDS011;31595;51.418;7.572;2023-06-22T08:41:28;9.50;;;8.57;;
45887;SDS011;31595;51.418;7.572;2023-06-22T08:43:54;9.68;;;8.77;;
45887;SDS011;31595;51.418;7.572;2023-06-22T08:46:21;9.60;;;8.77;;
45887;SDS011;31595;51.418;7.572;2023-06-22T08:48:55;9.02;;;8.25;;
45887;SDS011;31595;51.418;7.572;2023-06-22T08:51:25;8.30;;;7.43;;
45887;SDS011;31595;51.418;7.572;2023-06-22T08:53:51;9.45;;;8.05;;
45887;SDS011;31595;51.418;7.572;2023-06-22T08:56:18;7.65;;;6.90;;
45887;SDS011;31595;51.418;7.572;2023-06-22T08:58:46;8.77;;;7.85;;
45887;SDS011;31595;51.418;7.572;2023-06-22T09:03:40;9.00;;;7.73;;
45887;SDS011;31595;51.418;7.572;2023-06-22T09:06:07;7.43;;;6.82;;
45887;SDS011;31595;51.418;7.572;2023-06-22T09:08:35;7.97;;;7.10;;
45887;SDS011;31595;51.418;7.572;2023-06-22T09:11:11;7.30;;;6.60;;
45887;SDS011;31595;51.418;7.572;2023-06-22T09:13:40;8.43;;;7.22;;
45887;SDS011;31595;51.418;7.572;2023-06-22T09:16:08;8.00;;;7.30;;
45887;SDS011;31595;51.418;7.572;2023-06-22T09:18:36;7.65;;;6.95;;
45887;SDS011;31595;51.418;7.572;2023-06-22T09:21:03;6.90;;;6.30;;
45887;SDS011;31595;51.418;7.572;2023-06-22T09:23:30;7.25;;;6.55;;
45887;SDS011;31595;51.418;7.572;2023-06-22T09:25:57;8.73;;;7.05;;
45887;SDS011;31595;51.418;7.572;2023-06-22T09:28:24;7.60;;;6.88;;
45887;SDS011;31595;51.418;7.572;2023-06-22T09:30:51;7.55;;;6.82;;
45887;SDS011;31595;51.418;7.572;2023-06-22T09:33:26;7.20;;;6.60;;
45887;SDS011;31595;51.418;7.572;2023-06-22T09:35:53;7.00;;;6.40;;
45887;SDS011;31595;51.418;7.572;2023-06-22T09:38:22;7.70;;;7.00;;
45887;SDS011;31595;51.418;7.572;2023-06-22T09:40:49;7.25;;;6.65;;
45887;SDS011;31595;51.418;7.572;2023-06-22T09:43:16;7.85;;;7.05;;
45887;SDS011;31595;51.418;7.572;2023-06-22T09:45:46;7.30;;;6.65;;
45887;SDS011;31595;51.418;7.572;2023-06-22T09:48:19;7.45;;;6.85;;
45887;SDS011;31595;51.418;7.572;2023-06-22T09:50:55;7.40;;;6.80;;
45887;SDS011;31595;51.418;7.572;2023-06-22T09:53:23;7.82;;;7.13;;
45887;SDS011;31595;51.418;7.572;2023-06-22T09:55:49;8.35;;;7.72;;
45887;SDS011;31595;51.418;7.572;2023-06-22T09:58:16;8.63;;;7.93;;
45887;SDS011;31595;51.418;7.572;2023-06-22T10:00:43;8.65;;;7.70;;
45887;SDS011;31595;51.418;7.572;2023-06-22T10:03:10;8.93;;;8.20;;
45887;SDS011;31595;51.418;7.572;2023-06-22T10:05:37;8.93;;;7.55;;
45887;SDS011;31595;51.418;7.572;2023-06-22T10:08:05;8.57;;;7.88;;
45887;SDS011;31595;51.418;7.572;2023-06-22T10:10:33;8.38;;;7.65;;
45887;SDS011;31595;51.418;7.572;2023-06-22T10:13:02;7.68;;;6.97;;
45887;SDS011;31595;51.418;7.572;2023-06-22T10:15:29;12.60;;;7.80;;
45887;SDS011;31595;51.418;7.572;2023-06-22T10:17:56;7.78;;;6.97;;
45887;SDS011;31595;51.418;7.572;2023-06-22T10:20:23;8.05;;;6.78;;
45887;SDS011;31595;51.418;7.572;2023-06-22T10:22:51;7.45;;;6.72;;
45887;SDS011;31595;51.418;7.572;2023-06-22T10:25:20;7.07;;;6.32;;
45887;SDS011;31595;51.418;7.572;2023-06-22T10:30:13;7.30;;;6.70;;
45887;SDS011;31595;51.418;7.572;2023-06-22T10:32:43;7.72;;;7.03;;
45887;SDS011;31595;51.418;7.572;2023-06-22T10:35:12;8.57;;;7.60;;
45887;SDS011;31595;51.418;7.572;2023-06-22T10:37:41;7.38;;;6.68;;
45887;SDS011;31595;51.418;7.572;2023-06-22T10:40:11;8.75;;;7.85;;
45887;SDS011;31595;51.418;7.572;2023-06-22T10:42:43;8.73;;;7.82;;
45887;SDS011;31595;51.418;7.572;2023-06-22T10:45:09;8.93;;;8.13;;
45887;SDS011;31595;51.418;7.572;2023-06-22T10:47:42;8.93;;;7.95;;
45887;SDS011;31595;51.418;7.572;2023-06-22T10:50:12;7.53;;;6.82;;
45887;SDS011;31595;51.418;7.572;2023-06-22T10:52:41;8.07;;;7.05;;
45887;SDS011;31595;51.418;7.572;2023-06-22T10:55:08;7.75;;;7.00;;
45887;SDS011;31595;51.418;7.572;2023-06-22T10:57:38;8.43;;;7.63;;
45887;SDS011;31595;51.418;7.572;2023-06-22T11:00:10;8.55;;;7.65;;
45887;SDS011;31595;51.418;7.572;2023-06-22T11:02:42;9.65;;;7.68;;
45887;SDS011;31595;51.418;7.572;2023-06-22T11:05:09;7.75;;;6.95;;
45887;SDS011;31595;51.418;7.572;2023-06-22T11:07:37;7.88;;;7.18;;
45887;SDS011;31595;51.418;7.572;2023-06-22T11:10:04;7.47;;;6.88;;
45887;SDS011;31595;51.418;7.572;2023-06-22T11:12:31;11.07;;;8.10;;
45887;SDS011;31595;51.418;7.572;2023-06-22T11:14:58;8.18;;;7.40;;
45887;SDS011;31595;51.418;7.572;2023-06-22T11:17:26;9.63;;;8.73;;
45887;SDS011;31595;51.418;7.572;2023-06-22T11:19:53;8.35;;;7.53;;
45887;SDS011;31595;51.418;7.572;2023-06-22T11:22:20;9.57;;;8.18;;
45887;SDS011;31595;51.418;7.572;2023-06-22T11:24:47;9.23;;;8.40;;
45887;SDS011;31595;51.418;7.572;2023-06-22T11:27:14;9.35;;;8.45;;
45887;SDS011;31595;51.418;7.572;2023-06-22T11:29:41;8.18;;;7.38;;
45887;SDS011;31595;51.418;7.572;2023-06-22T11:32:08;8.57;;;7.78;;
45887;SDS011;31595;51.418;7.572;2023-06-22T11:34:37;10.20;;;8.25;;
45887;SDS011;31595;51.418;7.572;2023-06-22T11:37:03;9.23;;;8.43;;
45887;SDS011;31595;51.418;7.572;2023-06-22T11:39:30;10.55;;;9.45;;
45887;SDS011;31595;51.418;7.572;2023-06-22T11:41:57;10.57;;;9.57;;
45887;SDS011;31595;51.418;7.572;2023-06-22T11:44:24;9.73;;;8.75;;
45887;SDS011;31595;51.418;7.572;2023-06-22T11:46:51;10.48;;;9.48;;
45887;SDS011;31595;51.418;7.572;2023-06-22T11:49:17;10.73;;;9.63;;
45887;SDS011;31595;51.418;7.572;2023-06-22T11:51:48;10.63;;;9.68;;
45887;SDS011;31595;51.418;7.572;2023-06-22T11:54:15;9.40;;;8.43;;
45887;SDS011;31595;51.418;7.572;2023-06-22T11:59:20;12.63;;;11.57;;
45887;SDS011;31595;51.418;7.572;2023-06-22T12:01:47;11.80;;;10.68;;
45887;SDS011;31595;51.418;7.572;2023-06-22T12:04:16;12.48;;;11.38;;
45887;SDS011;31595;51.418;7.572;2023-06-22T12:06:43;13.20;;;11.75;;
45887;SDS011;31595;51.418;7.572;2023-06-22T12:09:19;12.15;;;11.00;;
45887;SDS011;31595;51.418;7.572;2023-06-22T12:11:46;14.73;;;13.00;;
45887;SDS011;31595;51.418;7.572;2023-06-22T12:14:13;15.07;;;13.65;;
45887;SDS011;31595;51.418;7.572;2023-06-22T12:16:40;16.20;;;14.60;;
45887;SDS011;31595;51.418;7.572;2023-06-22T12:19:09;15.43;;;13.90;;
45887;SDS011;31595;51.418;7.572;2023-06-22T12:21:36;15.50;;;13.95;;
45887;SDS011;31595;51.418;7.572;2023-06-22T12:24:03;20.42;;;17.73;;
45887;SDS011;31595;51.418;7.572;2023-06-22T12:26:32;18.80;;;16.98;;
45887;SDS011;31595;51.418;7.572;2023-06-22T12:28:59;19.47;;;17.27;;
45887;SDS011;31595;51.418;7.572;2023-06-22T12:31:26;20.35;;;18.23;;
45887;SDS011;31595;51.418;7.572;2023-06-22T12:33:53;22.38;;;19.65;;
45887;SDS011;31595;51.418;7.572;2023-06-22T12:36:20;19.60;;;17.58;;
45887;SDS011;31595;51.418;7.572;2023-06-22T12:38:46;23.60;;;20.52;;
45887;SDS011;31595;51.418;7.572;2023-06-22T12:41:13;19.42;;;16.45;;
45887;SDS011;31595;51.418;7.572;2023-06-22T12:43:41;18.35;;;16.27;;
45887;SDS011;31595;51.418;7.572;2023-06-22T12:46:08;16.77;;;14.90;;
45887;SDS011;31595;51.418;7.572;2023-06-22T12:48:35;16.98;;;15.27;;
45887;SDS011;31595;51.418;7.572;2023-06-22T12:51:07;16.85;;;15.30;;
45887;SDS011;31595;51.418;7.572;2023-06-22T12:53:33;14.90;;;13.32;;
45887;SDS011;31595;51.418;7.572;2023-06-22T12:56:00;15.65;;;14.18;;
45887;SDS011;31595;51.418;7.572;2023-06-22T12:58:27;15.18;;;12.73;;
45887;SDS011;31595;51.418;7.572;2023-06-22T13:00:55;14.45;;;13.05;;
45887;SDS011;31595;51.418;7.572;2023-06-22T13:03:22;13.07;;;11.73;;
45887;SDS011;31595;51.418;7.572;2023-06-22T13:05:51;12.77;;;11.52;;
45887;SDS011;31595;51.418;7.572;2023-06-22T13:08:18;13.68;;;10.90;;
45887;SDS011;31595;51.418;7.572;2023-06-22T13:10:45;12.30;;;11.07;;
45887;SDS011;31595;51.418;7.572;2023-06-22T13:13:11;10.30;;;9.35;;
45887;SDS011;31595;51.418;7.572;2023-06-22T13:15:38;11.23;;;10.23;;
45887;SDS011;31595;51.418;7.572;2023-06-22T13:18:10;12.07;;;10.98;;
45887;SDS011;31595;51.418;7.572;2023-06-22T13:20:37;11.97;;;10.77;;
45887;SDS011;31595;51.418;7.572;2023-06-22T13:23:03;13.00;;;11.70;;
45887;SDS011;31595;51.418;7.572;2023-06-22T13:25:30;11.45;;;10.45;;
45887;SDS011;31595;51.418;7.572;2023-06-22T13:27:57;13.07;;;11.77;;
45887;SDS011;31595;51.418;7.572;2023-06-22T13:30:24;12.00;;;10.90;;
45887;SDS011;31595;51.418;7.572;2023-06-22T13:32:51;12.48;;;11.27;;
45887;SDS011;31595;51.418;7.572;2023-06-22T13:35:19;10.38;;;9.02;;
45887;SDS011;31595;51.418;7.572;2023-06-22T13:37:46;10.95;;;9.85;;
45887;SDS011;31595;51.418;7.572;2023-06-22T13:40:13;9.50;;;8.57;;
45887;SDS011;31595;51.418;7.572;2023-06-22T13:42:40;8.02;;;7.22;;
45887;SDS011;31595;51.418;7.572;2023-06-22T13:45:07;7.35;;;6.68;;
45887;SDS011;31595;51.418;7.572;2023-06-22T13:47:34;7.00;;;6.30;;
45887;SDS011;31595;51.418;7.572;2023-06-22T13:50:00;8.40;;;7.53;;
45887;SDS011;31595;51.418;7.572;2023-06-22T13:52:29;9.88;;;8.95;;
45887;SDS011;31595;51.418;7.572;2023-06-22T13:54:55;9.07;;;8.25;;
45887;SDS011;31595;51.418;7.572;2023-06-22T13:57:22;10.00;;;9.02;;
45887;SDS011;31595;51.418;7.572;2023-06-22T13:59:49;9.00;;;7.53;;
45887;SDS011;31595;51.418;7.572;2023-06-22T14:02:16;9.27;;;8.30;;
45887;SDS011;31595;51.418;7.572;2023-06-22T14:04:43;8.40;;;7.70;;
45887;SDS011;31595;51.418;7.572;2023-06-22T14:07:09;8.25;;;7.55;;
45887;SDS011;31595;51.418;7.572;2023-06-22T14:09:37;7.85;;;7.10;;
45887;SDS011;31595;51.418;7.572;2023-06-22T14:12:05;8.40;;;7.60;;
45887;SDS011;31595;51.418;7.572;2023-06-22T14:14:32;8.55;;;6.55;;
45887;SDS011;31595;51.418;7.572;2023-06-22T14:16:58;7.75;;;7.05;;
45887;SDS011;31595;51.418;7.572;2023-06-22T14:19:25;7.20;;;6.50;;
45887;SDS011;31595;51.418;7.572;2023-06-22T14:21:52;7.40;;;6.80;;
45887;SDS011;31595;51.418;7.572;2023-06-22T14:24:19;7.50;;;6.75;;
45887;SDS011;31595;51.418;7.572;2023-06-22T14:26:47;6.80;;;6.20;;
45887;SDS011;31595;51.418;7.572;2023-06-22T14:29:13;7.88;;;7.18;;
45887;SDS011;31595;51.418;7.572;2023-06-22T14:31:40;8.05;;;7.15;;
45887;SDS011;31595;51.418;7.572;2023-06-22T14:34:07;8.10;;;7.30;;
45887;SDS011;31595;51.418;7.572;2023-06-22T14:36:34;8.70;;;6.97;;
45887;SDS011;31595;51.418;7.572;2023-06-22T14:39:01;7.90;;;7.10;;
45887;SDS011;31595;51.418;7.572;2023-06-22T14:41:28;8.20;;;7.50;;
45887;SDS011;31595;51.418;7.572;2023-06-22T14:43:56;7.78;;;7.07;;
45887;SDS011;31595;51.418;7.572;2023-06-22T14:46:23;8.50;;;7.80;;
45887;SDS011;31595;51.418;7.572;2023-06-22T14:48:50;10.82;;;8.63;;
45887;SDS011;31595;51.418;7.572;2023-06-22T14:51:17;9.05;;;8.25;;
45887;SDS011;31595;51.418;7.572;2023-06-22T14:53:44;10.48;;;8.85;;
45887;SDS011;31595;51.418;7.572;2023-06-22T14:56:11;10.55;;;8.77;;
45887;SDS011;31595;51.418;7.572;2023-06-22T14:58:39;10.38;;;9.52;;
45887;SDS011;31595;51.418;7.572;2023-06-22T15:01:10;10.65;;;9.73;;
45887;SDS011;31595;51.418;7.572;2023-06-22T15:03:37;9.55;;;8.75;;
45887;SDS011;31595;51.418;7.572;2023-06-22T15:06:04;9.40;;;8.50;;
45887;SDS011;31595;51.418;7.572;2023-06-22T15:08:30;9.05;;;8.35;;